Time;durP1;ratioP1;P1;durP2;ratioP2;P2;SDS_P1;SDS_P2;PMS_P1;PMS_P2;Temp;Humidity;BMP_temperature;BMP_pressure;BME280_temperature;BME280_humidity;BME280_pressure;Samples;Min_cycle;Max_cycle;Signal;HPM_P1;HPM_P2
2024/01/20 00:01:20;;;;;;;20.25;3.53;;;;;;;;;;5101511;28;20031;-69
2024/01/20 00:04:06;;;;;;;14.00;3.17;;;;;;;;;;5113486;28;20032;-69
2024/01/20 00:06:51;;;;;;;13.98;3.85;;;;;;;;;;5114049;28;20106;-69
2024/01/20 00:09:37;;;;;;;10.27;3.50;;;;;;;;;;5114940;28;20015;-68
2024/01/20 00:12:22;;;;;;;9.82;2.97;;;;;;;;;;5112509;28;20020;-69
2024/01/20 00:15:09;;;;;;;8.40;2.65;;;;;;;;;;5113484;28;20460;-69
2024/01/20 00:17:54;;;;;;;20.98;3.33;;;;;;;;;;5092685;28;20035;-69
2024/01/20 00:20:42;;;;;;;19.35;4.07;;;;;;;;;;5114071;28;20058;-68
2024/01/20 00:23:27;;;;;;;11.82;3.13;;;;;;;;;;5114472;28;20023;-69
2024/01/20 00:26:13;;;;;;;17.08;3.60;;;;;;;;;;5106130;28;20016;-69
2024/01/20 00:28:58;;;;;;;25.75;4.00;;;;;;;;;;5095871;28;20107;-69
2024/01/20 00:31:44;;;;;;;9.45;2.92;;;;;;;;;;5110961;28;20023;-69
2024/01/20 00:34:30;;;;;;;16.77;2.95;;;;;;;;;;5093748;28;20028;-69
2024/01/20 00:37:15;;;;;;;9.32;4.20;;;;;;;;;;5093695;28;20405;-69
2024/01/20 00:40:02;;;;;;;21.42;5.20;;;;;;;;;;5095934;28;20024;-69
2024/01/20 00:42:48;;;;;;;20.60;3.47;;;;;;;;;;5091941;28;20051;-68
2024/01/20 00:45:34;;;;;;;15.85;3.42;;;;;;;;;;5093720;28;20031;-69
2024/01/20 00:48:19;;;;;;;12.13;3.03;;;;;;;;;;5092520;28;20451;-69
2024/01/20 00:51:05;;;;;;;25.08;4.43;;;;;;;;;;5103368;28;20129;-69
2024/01/20 00:53:51;;;;;;;15.55;3.50;;;;;;;;;;5113063;28;20015;-69
2024/01/20 00:56:36;;;;;;;14.35;2.92;;;;;;;;;;5111567;28;20028;-69
2024/01/20 00:59:22;;;;;;;13.10;3.55;;;;;;;;;;5113303;28;20504;-68
2024/01/20 01:02:08;;;;;;;7.20;2.58;;;;;;;;;;5099488;28;20028;-69
2024/01/20 01:04:53;;;;;;;15.35;3.63;;;;;;;;;;5098508;28;20028;-69
2024/01/20 01:07:39;;;;;;;15.93;4.28;;;;;;;;;;5093572;28;20021;-69
2024/01/20 01:10:25;;;;;;;9.75;3.67;;;;;;;;;;5113494;28;20392;-69
2024/01/20 01:13:10;;;;;;;19.27;3.60;;;;;;;;;;5111774;28;20023;-69
2024/01/20 01:15:56;;;;;;;21.25;3.85;;;;;;;;;;5108945;28;20500;-69
2024/01/20 01:18:42;;;;;;;17.17;3.70;;;;;;;;;;5091893;28;20028;-69
2024/01/20 01:21:28;;;;;;;12.10;3.25;;;;;;;;;;5100405;28;20045;-69
2024/01/20 01:24:14;;;;;;;16.73;3.00;;;;;;;;;;5113240;28;20031;-68
2024/01/20 01:26:59;;;;;;;20.65;3.20;;;;;;;;;;5104390;28;20051;-69
2024/01/20 01:29:45;;;;;;;21.55;3.65;;;;;;;;;;5092691;28;20445;-68
2024/01/20 01:32:30;;;;;;;16.10;3.25;;;;;;;;;;5097669;28;20082;-68
2024/01/20 01:35:16;;;;;;;13.82;3.83;;;;;;;;;;5091874;28;20209;-69
2024/01/20 01:38:02;;;;;;;17.85;3.95;;;;;;;;;;5093119;28;20020;-68
2024/01/20 01:40:48;;;;;;;14.15;3.70;;;;;;;;;;5093005;28;20106;-69
2024/01/20 01:43:33;;;;;;;19.10;4.75;;;;;;;;;;5095470;28;20025;-68
2024/01/20 01:46:19;;;;;;;21.83;3.40;;;;;;;;;;5092612;28;20450;-68
2024/01/20 01:49:05;;;;;;;25.30;5.60;;;;;;;;;;5094676;28;20459;-69
2024/01/20 01:51:52;;;;;;;27.70;4.70;;;;;;;;;;5092095;28;20016;-69
2024/01/20 01:54:38;;;;;;;10.35;2.90;;;;;;;;;;5100174;28;20055;-69
2024/01/20 01:57:24;;;;;;;20.63;3.72;;;;;;;;;;5112415;28;20027;-68
2024/01/20 02:00:10;;;;;;;21.40;4.13;;;;;;;;;;5104681;28;20473;-68
2024/01/20 02:02:56;;;;;;;23.65;4.97;;;;;;;;;;5092534;28;20401;-68
2024/01/20 02:05:42;;;;;;;13.82;3.47;;;;;;;;;;5103806;28;20023;-69
2024/01/20 02:08:28;;;;;;;20.42;4.07;;;;;;;;;;5097775;28;20408;-68
2024/01/20 02:11:14;;;;;;;11.00;3.42;;;;;;;;;;5113527;28;20247;-69
2024/01/20 02:14:00;;;;;;;12.57;3.47;;;;;;;;;;5097248;28;20063;-68
2024/01/20 02:16:45;;;;;;;15.23;3.35;;;;;;;;;;5097070;28;20062;-69
2024/01/20 02:19:36;;;;;;;12.95;3.65;;;;;;;;;;5111346;28;20031;-68
2024/01/20 02:22:21;;;;;;;13.15;4.28;;;;;;;;;;5092596;28;20028;-69
2024/01/20 02:25:07;;;;;;;14.82;4.13;;;;;;;;;;5115701;28;20026;-69
2024/01/20 02:27:54;;;;;;;14.07;2.90;;;;;;;;;;5098075;28;20024;-69
2024/01/20 02:30:43;;;;;;;19.05;4.97;;;;;;;;;;5095860;28;20020;-69
2024/01/20 02:33:29;;;;;;;13.10;4.03;;;;;;;;;;5081106;28;20065;-69
2024/01/20 02:36:14;;;;;;;15.15;3.00;;;;;;;;;;5094961;28;20489;-69
2024/01/20 02:39:00;;;;;;;14.57;3.08;;;;;;;;;;5095384;28;20024;-69
2024/01/20 02:41:46;;;;;;;17.75;3.17;;;;;;;;;;5095333;28;20107;-69
2024/01/20 02:44:32;;;;;;;19.83;4.65;;;;;;;;;;5095994;28;20020;-69
2024/01/20 02:47:18;;;;;;;17.58;3.55;;;;;;;;;;5095132;28;20047;-69
2024/01/20 02:50:04;;;;;;;24.42;3.90;;;;;;;;;;5096156;28;20524;-69
2024/01/20 02:52:52;;;;;;;15.35;3.30;;;;;;;;;;5080362;28;20473;-69
2024/01/20 02:55:37;;;;;;;23.98;3.83;;;;;;;;;;5094543;28;20114;-69
2024/01/20 02:58:23;;;;;;;22.00;3.45;;;;;;;;;;5095373;28;20024;-69
2024/01/20 03:01:09;;;;;;;18.60;3.88;;;;;;;;;;5094958;28;20027;-69
2024/01/20 03:03:54;;;;;;;32.28;4.90;;;;;;;;;;5095264;28;20095;-69
2024/01/20 03:06:40;;;;;;;10.20;2.92;;;;;;;;;;5093481;28;20032;-69
2024/01/20 03:09:25;;;;;;;20.80;3.30;;;;;;;;;;5095050;28;20024;-69
2024/01/20 03:12:11;;;;;;;17.63;5.03;;;;;;;;;;5095234;28;20024;-69
2024/01/20 03:14:57;;;;;;;23.65;4.53;;;;;;;;;;5093836;28;20023;-69
2024/01/20 03:17:42;;;;;;;11.77;3.83;;;;;;;;;;5094125;28;20085;-69
2024/01/20 03:20:28;;;;;;;16.85;3.75;;;;;;;;;;5094983;28;20157;-69
2024/01/20 03:23:13;;;;;;;23.73;3.42;;;;;;;;;;5094852;28;20134;-69
2024/01/20 03:26:06;;;;;;;21.02;3.83;;;;;;;;;;5095089;28;20077;-69
2024/01/20 03:28:52;;;;;;;17.08;3.35;;;;;;;;;;5079067;28;20027;-69
2024/01/20 03:31:38;;;;;;;14.80;3.20;;;;;;;;;;5094423;28;20382;-69
2024/01/20 03:34:23;;;;;;;16.92;3.20;;;;;;;;;;5093698;28;20047;-69
2024/01/20 03:37:09;;;;;;;12.43;2.85;;;;;;;;;;5093699;28;20051;-69
2024/01/20 03:39:54;;;;;;;21.73;4.68;;;;;;;;;;5094600;28;20022;-69
2024/01/20 03:42:40;;;;;;;14.73;3.80;;;;;;;;;;5094312;28;20086;-69
2024/01/20 03:45:26;;;;;;;16.40;3.30;;;;;;;;;;5093430;28;20017;-69
2024/01/20 03:48:12;;;;;;;7.72;3.30;;;;;;;;;;5094197;28;20047;-69
2024/01/20 03:50:57;;;;;;;22.45;3.80;;;;;;;;;;5094479;28;20020;-69
2024/01/20 03:53:43;;;;;;;20.15;4.57;;;;;;;;;;5092409;28;20028;-69
2024/01/20 03:56:29;;;;;;;10.15;3.08;;;;;;;;;;5093417;28;20472;-68
2024/01/20 03:59:14;;;;;;;16.75;3.45;;;;;;;;;;5095398;28;20043;-69
2024/01/20 04:02:00;;;;;;;8.45;2.50;;;;;;;;;;5109650;28;20084;-69
2024/01/20 04:04:45;;;;;;;16.05;3.35;;;;;;;;;;5114178;28;20492;-69
2024/01/20 04:07:31;;;;;;;14.35;3.47;;;;;;;;;;5114062;28;20426;-69
2024/01/20 04:10:17;;;;;;;15.02;3.20;;;;;;;;;;5114508;28;20024;-68
2024/01/20 04:13:03;;;;;;;23.60;3.88;;;;;;;;;;5100884;28;20028;-69
2024/01/20 04:15:49;;;;;;;12.13;3.67;;;;;;;;;;5093368;28;20573;-69
2024/01/20 04:18:34;;;;;;;11.70;2.60;;;;;;;;;;5092866;28;20028;-69
2024/01/20 04:21:20;;;;;;;19.10;3.53;;;;;;;;;;5100481;28;20068;-69
2024/01/20 04:24:06;;;;;;;16.98;4.65;;;;;;;;;;5094608;28;20043;-68
2024/01/20 04:26:51;;;;;;;12.52;3.10;;;;;;;;;;5097897;28;20566;-69
2024/01/20 04:29:37;;;;;;;14.32;4.07;;;;;;;;;;5093059;28;20028;-69
2024/01/20 04:32:22;;;;;;;15.73;2.90;;;;;;;;;;5106531;28;20024;-68
2024/01/20 04:35:08;;;;;;;20.88;3.85;;;;;;;;;;5112877;28;20103;-68
2024/01/20 04:37:54;;;;;;;20.63;4.70;;;;;;;;;;5094908;28;20024;-69
2024/01/20 04:40:39;;;;;;;8.05;3.10;;;;;;;;;;5093118;28;20019;-69
2024/01/20 04:43:27;;;;;;;21.83;3.95;;;;;;;;;;5095716;28;20052;-69
2024/01/20 04:46:12;;;;;;;10.45;3.35;;;;;;;;;;5090957;28;20405;-69
2024/01/20 04:48:58;;;;;;;10.02;2.70;;;;;;;;;;5093797;28;20020;-69
2024/01/20 04:51:45;;;;;;;7.47;2.80;;;;;;;;;;5092179;28;20031;-68
2024/01/20 04:54:31;;;;;;;17.25;3.47;;;;;;;;;;5097348;28;20026;-69
2024/01/20 04:57:17;;;;;;;15.90;3.85;;;;;;;;;;5112884;28;20566;-68
2024/01/20 05:00:03;;;;;;;23.92;3.95;;;;;;;;;;5107307;28;20027;-69
2024/01/20 05:02:49;;;;;;;20.38;2.80;;;;;;;;;;5077712;28;20447;-68
2024/01/20 05:05:34;;;;;;;14.98;3.45;;;;;;;;;;5092527;28;20410;-67
2024/01/20 05:08:21;;;;;;;21.10;3.42;;;;;;;;;;5109467;28;20024;-69
2024/01/20 05:11:07;;;;;;;18.75;4.25;;;;;;;;;;5107747;28;20523;-68
2024/01/20 05:13:52;;;;;;;20.33;4.70;;;;;;;;;;5092924;28;20028;-69
2024/01/20 05:16:38;;;;;;;26.52;4.18;;;;;;;;;;5091308;28;20020;-68
2024/01/20 05:19:23;;;;;;;17.02;3.55;;;;;;;;;;5111734;28;20019;-69
2024/01/20 05:22:09;;;;;;;12.88;2.83;;;;;;;;;;5101273;28;20397;-69
2024/01/20 05:24:55;;;;;;;16.63;4.25;;;;;;;;;;5091816;28;20024;-69
2024/01/20 05:27:41;;;;;;;14.35;2.65;;;;;;;;;;5101162;28;20067;-69
2024/01/20 05:30:26;;;;;;;13.70;3.00;;;;;;;;;;5076876;28;20108;-69
2024/01/20 05:33:12;;;;;;;27.33;4.03;;;;;;;;;;5092702;28;20024;-69
2024/01/20 05:35:57;;;;;;;26.58;4.82;;;;;;;;;;5091532;28;20558;-69
2024/01/20 05:38:43;;;;;;;16.25;4.07;;;;;;;;;;5092383;28;20556;-69
2024/01/20 05:41:29;;;;;;;15.82;4.22;;;;;;;;;;5092379;28;20438;-68
2024/01/20 05:44:14;;;;;;;16.45;4.18;;;;;;;;;;5095531;28;20054;-68
2024/01/20 05:47:00;;;;;;;12.77;4.70;;;;;;;;;;5091745;28;20024;-69
2024/01/20 05:49:46;;;;;;;22.80;3.70;;;;;;;;;;5095561;28;20041;-68
2024/01/20 05:52:31;;;;;;;22.45;3.92;;;;;;;;;;5104237;28;20053;-69
2024/01/20 05:55:17;;;;;;;17.25;3.45;;;;;;;;;;5112666;28;20508;-69
2024/01/20 05:58:02;;;;;;;33.95;5.88;;;;;;;;;;5113037;28;20015;-69
2024/01/20 06:00:48;;;;;;;16.02;3.92;;;;;;;;;;5114778;28;20021;-69
2024/01/20 06:03:34;;;;;;;16.33;3.55;;;;;;;;;;5115055;28;20032;-68
2024/01/20 06:06:19;;;;;;;21.00;4.68;;;;;;;;;;5116675;28;20023;-69
2024/01/20 06:09:05;;;;;;;22.00;4.68;;;;;;;;;;5110088;28;20030;-69
2024/01/20 06:11:50;;;;;;;18.40;3.95;;;;;;;;;;5109382;28;20035;-68
2024/01/20 06:14:36;;;;;;;20.95;4.00;;;;;;;;;;5095784;28;20115;-69
2024/01/20 06:17:22;;;;;;;13.88;4.07;;;;;;;;;;5096445;28;20020;-69
2024/01/20 06:20:08;;;;;;;24.98;4.65;;;;;;;;;;5101234;28;20393;-69
2024/01/20 06:22:53;;;;;;;26.95;4.97;;;;;;;;;;5108675;28;20024;-69
2024/01/20 06:25:39;;;;;;;18.85;4.53;;;;;;;;;;5115992;28;20053;-69
2024/01/20 06:28:25;;;;;;;20.70;3.60;;;;;;;;;;5100396;28;20032;-69
2024/01/20 06:31:21;;;;;;;17.98;4.30;;;;;;;;;;5094955;28;20133;-69
2024/01/20 06:34:07;;;;;;;13.60;4.00;;;;;;;;;;5086821;28;20024;-69
2024/01/20 06:36:52;;;;;;;12.13;5.00;;;;;;;;;;5096813;28;20034;-69
2024/01/20 06:39:40;;;;;;;23.88;4.15;;;;;;;;;;5094831;28;20102;-69
2024/01/20 06:42:26;;;;;;;28.00;5.35;;;;;;;;;;5096227;28;20028;-69
2024/01/20 06:45:11;;;;;;;19.50;4.32;;;;;;;;;;5113359;28;20438;-68
2024/01/20 06:47:57;;;;;;;13.30;4.00;;;;;;;;;;5115573;28;20031;-69
2024/01/20 06:50:43;;;;;;;16.90;4.07;;;;;;;;;;5102244;28;20028;-69
2024/01/20 06:53:29;;;;;;;25.50;4.55;;;;;;;;;;5094455;28;20064;-69
2024/01/20 06:56:15;;;;;;;19.08;3.70;;;;;;;;;;5095963;28;20032;-68
2024/01/20 06:59:01;;;;;;;24.40;4.80;;;;;;;;;;5107275;28;20033;-69
2024/01/20 07:01:46;;;;;;;16.60;5.18;;;;;;;;;;5101015;28;20392;-69
2024/01/20 07:04:32;;;;;;;19.48;3.90;;;;;;;;;;5096849;28;20028;-69
2024/01/20 07:07:18;;;;;;;20.88;4.50;;;;;;;;;;5093371;28;20020;-69
2024/01/20 07:10:06;;;;;;;15.63;5.10;;;;;;;;;;5106613;28;20023;-69
2024/01/20 07:12:51;;;;;;;24.25;5.60;;;;;;;;;;5104787;28;20062;-68
2024/01/20 07:15:38;;;;;;;12.70;3.80;;;;;;;;;;5104220;28;20458;-68
2024/01/20 07:18:23;;;;;;;24.17;4.65;;;;;;;;;;5094566;28;20104;-69
2024/01/20 07:21:09;;;;;;;20.35;4.10;;;;;;;;;;5096485;28;20416;-69
2024/01/20 07:23:55;;;;;;;20.90;4.03;;;;;;;;;;5093037;28;20408;-68
2024/01/20 07:26:40;;;;;;;17.10;4.45;;;;;;;;;;5100446;28;20553;-69
2024/01/20 07:29:26;;;;;;;20.45;4.22;;;;;;;;;;5095158;28;20059;-69
2024/01/20 07:32:11;;;;;;;16.55;3.33;;;;;;;;;;5095202;28;20027;-69
2024/01/20 07:34:57;;;;;;;24.08;3.60;;;;;;;;;;5093592;28;20027;-68
2024/01/20 07:37:43;;;;;;;15.48;3.08;;;;;;;;;;5094230;28;20020;-69
2024/01/20 07:40:28;;;;;;;22.48;4.07;;;;;;;;;;5115321;28;20095;-69
2024/01/20 07:43:15;;;;;;;14.57;2.78;;;;;;;;;;5114504;28;20059;-69
2024/01/20 07:46:00;;;;;;;27.73;3.97;;;;;;;;;;5094481;28;20102;-69
2024/01/20 07:48:46;;;;;;;22.15;4.65;;;;;;;;;;5091378;28;20031;-69
2024/01/20 07:51:31;;;;;;;15.75;4.38;;;;;;;;;;5109473;28;20019;-69
2024/01/20 07:54:17;;;;;;;18.55;3.47;;;;;;;;;;5114220;28;20121;-69
2024/01/20 07:57:03;;;;;;;19.10;3.28;;;;;;;;;;5112449;28;20023;-69
2024/01/20 07:59:49;;;;;;;25.02;4.22;;;;;;;;;;5099151;28;20555;-69
2024/01/20 08:02:34;;;;;;;30.60;4.20;;;;;;;;;;5102936;28;20028;-68
2024/01/20 08:05:22;;;;;;;19.77;4.25;;;;;;;;;;5092377;28;20024;-69
2024/01/20 08:08:08;;;;;;;11.50;3.58;;;;;;;;;;5094506;28;20134;-69
2024/01/20 08:10:53;;;;;;;24.70;4.63;;;;;;;;;;5097478;28;20396;-68
2024/01/20 08:13:39;;;;;;;25.45;3.78;;;;;;;;;;5111003;28;20052;-69
2024/01/20 08:16:28;;;;;;;23.02;5.28;;;;;;;;;;5101473;28;20063;-69
2024/01/20 08:19:13;;;;;;;20.70;4.20;;;;;;;;;;5092755;28;20120;-69
2024/01/20 08:21:59;;;;;;;20.40;4.00;;;;;;;;;;5101056;28;20519;-69
2024/01/20 08:24:45;;;;;;;16.80;4.43;;;;;;;;;;5093211;28;20038;-68
2024/01/20 08:27:30;;;;;;;13.68;3.60;;;;;;;;;;5104907;28;20031;-69
2024/01/20 08:30:16;;;;;;;16.38;3.28;;;;;;;;;;5114742;28;20020;-69
2024/01/20 08:33:02;;;;;;;20.65;4.60;;;;;;;;;;5092001;28;20023;-70
2024/01/20 08:35:49;;;;;;;14.68;3.28;;;;;;;;;;5093455;28;20070;-69
2024/01/20 08:38:35;;;;;;;17.67;4.85;;;;;;;;;;5095344;28;20038;-68
2024/01/20 08:41:21;;;;;;;12.32;3.65;;;;;;;;;;5093194;28;20485;-69
2024/01/20 08:44:07;;;;;;;23.42;5.22;;;;;;;;;;5101026;28;20118;-69
2024/01/20 08:46:52;;;;;;;28.48;5.57;;;;;;;;;;5112270;28;20496;-69
2024/01/20 08:49:38;;;;;;;13.45;3.90;;;;;;;;;;5094246;28;20477;-69
2024/01/20 08:52:23;;;;;;;18.58;4.72;;;;;;;;;;5093406;28;20024;-69
2024/01/20 08:55:09;;;;;;;33.35;5.40;;;;;;;;;;5077881;28;20043;-69
2024/01/20 08:57:56;;;;;;;13.23;4.32;;;;;;;;;;5093352;28;20024;-68
2024/01/20 09:00:42;;;;;;;25.77;5.03;;;;;;;;;;5093202;28;20016;-69
2024/01/20 09:03:28;;;;;;;21.85;3.97;;;;;;;;;;5096672;28;20419;-69
2024/01/20 09:06:15;;;;;;;20.98;4.85;;;;;;;;;;5093007;28;20097;-68
2024/01/20 09:09:01;;;;;;;22.60;4.40;;;;;;;;;;5106903;28;20389;-69
2024/01/20 09:11:47;;;;;;;15.80;3.47;;;;;;;;;;5104493;28;20035;-69
2024/01/20 09:14:33;;;;;;;20.23;4.50;;;;;;;;;;5096959;28;20034;-69
2024/01/20 09:17:18;;;;;;;21.48;4.78;;;;;;;;;;5096650;28;20031;-69
2024/01/20 09:20:06;;;;;;;21.25;3.42;;;;;;;;;;5102083;28;20030;-69
2024/01/20 09:22:51;;;;;;;20.75;4.00;;;;;;;;;;5113067;28;20027;-68
2024/01/20 09:25:37;;;;;;;18.25;4.22;;;;;;;;;;5113351;28;20400;-69
2024/01/20 09:28:23;;;;;;;27.50;5.05;;;;;;;;;;5100988;28;20464;-69
2024/01/20 09:31:08;;;;;;;27.92;4.55;;;;;;;;;;5093265;28;20024;-69
2024/01/20 09:33:54;;;;;;;19.83;3.45;;;;;;;;;;5103699;28;20045;-69
2024/01/20 09:36:39;;;;;;;14.90;3.47;;;;;;;;;;5097626;28;20489;-69
2024/01/20 09:39:25;;;;;;;17.17;3.53;;;;;;;;;;5099677;28;20245;-69
2024/01/20 09:42:11;;;;;;;30.08;5.82;;;;;;;;;;5096733;28;20028;-68
2024/01/20 09:44:57;;;;;;;19.38;3.65;;;;;;;;;;5108897;28;20532;-69
2024/01/20 09:47:42;;;;;;;17.02;4.63;;;;;;;;;;5116250;28;20516;-69
2024/01/20 09:50:28;;;;;;;8.23;3.15;;;;;;;;;;5098994;28;20032;-69
2024/01/20 09:53:15;;;;;;;17.42;3.85;;;;;;;;;;5094973;28;20197;-68
2024/01/20 09:56:01;;;;;;;12.70;3.50;;;;;;;;;;5087381;28;20028;-69
2024/01/20 09:58:48;;;;;;;24.63;4.03;;;;;;;;;;5098601;28;20031;-68
2024/01/20 10:01:34;;;;;;;20.52;3.85;;;;;;;;;;5094751;28;20047;-69
2024/01/20 10:04:21;;;;;;;16.65;4.03;;;;;;;;;;5097863;28;20080;-69
2024/01/20 10:07:07;;;;;;;11.38;2.97;;;;;;;;;;5079821;28;20436;-69
2024/01/20 10:09:53;;;;;;;15.95;3.75;;;;;;;;;;5099436;28;20019;-69
2024/01/20 10:12:38;;;;;;;14.10;3.05;;;;;;;;;;5097530;28;20020;-68
2024/01/20 10:15:26;;;;;;;17.23;4.18;;;;;;;;;;5106355;28;20524;-69
2024/01/20 10:18:11;;;;;;;19.83;4.32;;;;;;;;;;5100722;28;20477;-69
2024/01/20 10:21:05;;;;;;;20.88;4.38;;;;;;;;;;5116947;28;20019;-69
2024/01/20 10:23:51;;;;;;;16.60;3.47;;;;;;;;;;5115923;28;20385;-69
2024/01/20 10:26:41;;;;;;;23.40;4.35;;;;;;;;;;5115285;28;20049;-69
2024/01/20 10:29:28;;;;;;;21.35;5.35;;;;;;;;;;5097105;28;20030;-69
2024/01/20 10:32:14;;;;;;;7.00;2.88;;;;;;;;;;5100262;28;20028;-69
2024/01/20 10:35:00;;;;;;;11.73;3.53;;;;;;;;;;5099497;28;20026;-69
2024/01/20 10:37:48;;;;;;;33.00;4.45;;;;;;;;;;5115708;28;20023;-69
2024/01/20 10:40:36;;;;;;;22.60;4.80;;;;;;;;;;5109016;28;20381;-69
2024/01/20 10:43:22;;;;;;;16.58;4.50;;;;;;;;;;5090470;28;20419;-68
2024/01/20 10:46:12;;;;;;;26.58;4.80;;;;;;;;;;5078713;28;20558;-68
2024/01/20 10:49:00;;;;;;;23.20;6.28;;;;;;;;;;5091387;28;20036;-69
2024/01/20 10:51:46;;;;;;;15.13;4.40;;;;;;;;;;5100672;28;20152;-68
2024/01/20 10:54:32;;;;;;;20.63;4.70;;;;;;;;;;5097634;28;20043;-69
2024/01/20 10:57:18;;;;;;;13.88;4.13;;;;;;;;;;5096449;28;20115;-69
2024/01/20 11:00:08;;;;;;;16.35;3.55;;;;;;;;;;5115725;28;20492;-68
2024/01/20 11:02:54;;;;;;;13.80;4.97;;;;;;;;;;5096125;28;20405;-69
2024/01/20 11:05:45;;;;;;;26.55;3.95;;;;;;;;;;5114903;28;20031;-69
2024/01/20 11:08:31;;;;;;;24.10;4.50;;;;;;;;;;5099964;28;20028;-69
2024/01/20 11:11:24;;;;;;;27.65;4.40;;;;;;;;;;5114860;28;20438;-69
2024/01/20 11:14:12;;;;;;;19.15;4.60;;;;;;;;;;5094706;28;20031;-69
2024/01/20 11:17:08;;;;;;;20.73;4.28;;;;;;;;;;5083039;28;20031;-68
2024/01/20 11:19:54;;;;;;;21.45;4.60;;;;;;;;;;5089438;28;20606;-69
2024/01/20 11:22:40;;;;;;;18.75;3.80;;;;;;;;;;5114432;28;20024;-69
2024/01/20 11:25:31;;;;;;;19.38;4.82;;;;;;;;;;5115281;28;20028;-69
2024/01/20 11:28:33;;;;;;;15.32;3.25;;;;;;;;;;5099672;28;20028;-69
2024/01/20 11:31:19;;;;;;;24.35;4.32;;;;;;;;;;5078337;28;20039;-69
2024/01/20 11:34:05;;;;;;;14.18;3.65;;;;;;;;;;5092491;28;20385;-69
2024/01/20 11:36:52;;;;;;;12.23;2.78;;;;;;;;;;5091985;28;20452;-69
2024/01/20 11:39:37;;;;;;;21.52;4.65;;;;;;;;;;5086016;28;20028;-69
2024/01/20 11:42:23;;;;;;;16.50;3.38;;;;;;;;;;5112861;28;20050;-69
2024/01/20 11:45:09;;;;;;;19.70;3.85;;;;;;;;;;5109361;28;20016;-69
2024/01/20 11:47:55;;;;;;;22.00;5.00;;;;;;;;;;5093620;28;20092;-68
2024/01/20 11:50:40;;;;;;;25.67;3.75;;;;;;;;;;5095181;28;20058;-69
2024/01/20 11:53:26;;;;;;;29.17;3.42;;;;;;;;;;5101645;28;20484;-68
2024/01/20 11:56:15;;;;;;;10.52;2.88;;;;;;;;;;5097464;28;20032;-69
2024/01/20 11:59:01;;;;;;;13.38;3.20;;;;;;;;;;5092999;28;20512;-69
2024/01/20 12:01:48;;;;;;;11.18;3.08;;;;;;;;;;5096215;28;20500;-69
2024/01/20 12:04:34;;;;;;;16.70;4.35;;;;;;;;;;5093174;28;20066;-69
2024/01/20 12:07:19;;;;;;;23.17;4.80;;;;;;;;;;5101005;28;20028;-70
2024/01/20 12:10:05;;;;;;;18.50;3.90;;;;;;;;;;5091348;28;20106;-69
2024/01/20 12:12:51;;;;;;;22.50;4.35;;;;;;;;;;5097003;28;20020;-69
2024/01/20 12:15:37;;;;;;;19.00;3.55;;;;;;;;;;5113894;28;20043;-70
2024/01/20 12:18:23;;;;;;;27.65;4.43;;;;;;;;;;5090296;28;20020;-69
2024/01/20 12:21:09;;;;;;;28.30;5.65;;;;;;;;;;5082518;28;20145;-68
2024/01/20 12:23:54;;;;;;;24.13;5.15;;;;;;;;;;5100304;28;20041;-69
2024/01/20 12:26:41;;;;;;;24.58;5.50;;;;;;;;;;5092689;28;20020;-69
2024/01/20 12:29:26;;;;;;;20.52;7.22;;;;;;;;;;5082742;28;20080;-69
2024/01/20 12:32:12;;;;;;;21.27;6.47;;;;;;;;;;5092477;28;20457;-69
2024/01/20 12:34:58;;;;;;;29.58;7.28;;;;;;;;;;5097976;28;20035;-69
2024/01/20 12:37:43;;;;;;;27.42;8.40;;;;;;;;;;5093062;28;20020;-69
2024/01/20 12:40:29;;;;;;;30.45;7.88;;;;;;;;;;5094051;28;20016;-69
2024/01/20 12:43:15;;;;;;;33.50;11.45;;;;;;;;;;5094980;28;20081;-69
2024/01/20 12:46:01;;;;;;;28.90;9.90;;;;;;;;;;5092711;28;20054;-69
2024/01/20 12:48:47;;;;;;;41.70;12.02;;;;;;;;;;5092593;28;20028;-69
2024/01/20 12:51:33;;;;;;;27.48;9.57;;;;;;;;;;5092698;28;20519;-69
2024/01/20 12:54:18;;;;;;;35.47;11.05;;;;;;;;;;5107184;28;20020;-69
2024/01/20 12:57:04;;;;;;;47.40;11.95;;;;;;;;;;5105728;28;20028;-69
2024/01/20 12:59:50;;;;;;;38.22;12.25;;;;;;;;;;5076625;28;20400;-69
2024/01/20 13:02:35;;;;;;;28.23;11.30;;;;;;;;;;5094213;28;20047;-68
2024/01/20 13:05:21;;;;;;;45.80;12.10;;;;;;;;;;5111067;28;20539;-69
2024/01/20 13:08:07;;;;;;;33.67;11.75;;;;;;;;;;5095757;28;20088;-69
2024/01/20 13:10:52;;;;;;;36.90;10.70;;;;;;;;;;5092536;28;20106;-69
2024/01/20 13:13:38;;;;;;;41.63;14.70;;;;;;;;;;5095383;28;20489;-69
2024/01/20 13:16:24;;;;;;;34.22;12.45;;;;;;;;;;5092236;28;20027;-69
2024/01/20 13:19:09;;;;;;;46.42;12.48;;;;;;;;;;5088943;28;20027;-69
2024/01/20 13:21:55;;;;;;;37.35;12.18;;;;;;;;;;5113875;28;20051;-69
2024/01/20 13:24:40;;;;;;;43.30;11.88;;;;;;;;;;5098906;28;20066;-69
2024/01/20 13:27:26;;;;;;;34.42;12.63;;;;;;;;;;5112926;28;20050;-68
2024/01/20 13:30:12;;;;;;;41.25;14.27;;;;;;;;;;5112757;28;20019;-69
2024/01/20 13:32:58;;;;;;;42.40;13.70;;;;;;;;;;5112969;28;20081;-69
2024/01/20 13:35:43;;;;;;;46.20;14.85;;;;;;;;;;5109463;28;20092;-69
2024/01/20 13:38:29;;;;;;;37.03;14.50;;;;;;;;;;5092105;28;20451;-68
2024/01/20 13:41:15;;;;;;;44.47;14.23;;;;;;;;;;5092382;28;20405;-69
2024/01/20 13:44:00;;;;;;;53.72;14.85;;;;;;;;;;5092452;28;20042;-69
2024/01/20 13:46:46;;;;;;;51.85;15.35;;;;;;;;;;5091812;28;20016;-69
2024/01/20 13:49:31;;;;;;;65.22;16.02;;;;;;;;;;5094914;28;20036;-69
2024/01/20 13:52:17;;;;;;;46.35;15.75;;;;;;;;;;5090750;28;20566;-69
2024/01/20 13:55:04;;;;;;;43.50;16.77;;;;;;;;;;5104017;28;20055;-69
2024/01/20 13:57:50;;;;;;;52.92;16.65;;;;;;;;;;5097217;28;20034;-69
2024/01/20 14:00:36;;;;;;;43.55;16.27;;;;;;;;;;5101850;28;20373;-69
2024/01/20 14:03:22;;;;;;;45.33;14.45;;;;;;;;;;5098649;28;20024;-69
2024/01/20 14:06:07;;;;;;;43.67;16.13;;;;;;;;;;5111687;28;20094;-69
2024/01/20 14:08:53;;;;;;;46.92;15.27;;;;;;;;;;5109810;28;20489;-69
2024/01/20 14:11:38;;;;;;;50.65;17.73;;;;;;;;;;5097094;28;20016;-69
2024/01/20 14:14:24;;;;;;;41.97;14.45;;;;;;;;;;5110258;28;20435;-70
2024/01/20 14:17:10;;;;;;;48.75;16.55;;;;;;;;;;5102605;28;20114;-69
2024/01/20 14:19:55;;;;;;;37.50;14.25;;;;;;;;;;5093596;28;20386;-68
2024/01/20 14:22:41;;;;;;;35.20;13.95;;;;;;;;;;5105516;28;20031;-69
2024/01/20 14:25:27;;;;;;;40.30;14.38;;;;;;;;;;5115665;28;20073;-69
2024/01/20 14:28:12;;;;;;;40.42;13.38;;;;;;;;;;5106669;28;20118;-69
2024/01/20 14:30:58;;;;;;;39.22;14.82;;;;;;;;;;5104635;28;20046;-69
2024/01/20 14:33:43;;;;;;;36.33;12.23;;;;;;;;;;5116066;28;20012;-69
2024/01/20 14:36:29;;;;;;;38.47;14.75;;;;;;;;;;5115694;28;20027;-69
2024/01/20 14:39:17;;;;;;;42.22;15.27;;;;;;;;;;5109514;28;20031;-69
2024/01/20 14:42:03;;;;;;;38.55;16.20;;;;;;;;;;5094475;28;20103;-69
2024/01/20 14:44:49;;;;;;;44.95;15.55;;;;;;;;;;5094525;28;20034;-68
2024/01/20 14:47:35;;;;;;;37.38;14.38;;;;;;;;;;5111699;28;20031;-69
2024/01/20 14:50:20;;;;;;;36.40;14.85;;;;;;;;;;5113657;28;20071;-69
2024/01/20 14:53:06;;;;;;;41.90;16.27;;;;;;;;;;5110636;28;20080;-69
2024/01/20 14:55:52;;;;;;;44.85;16.00;;;;;;;;;;5114867;28;20028;-69
2024/01/20 14:58:38;;;;;;;46.40;18.10;;;;;;;;;;5098159;28;20106;-69
2024/01/20 15:01:23;;;;;;;48.15;15.70;;;;;;;;;;5094279;28;20028;-69
2024/01/20 15:04:09;;;;;;;45.47;14.93;;;;;;;;;;5097425;28;20455;-69
2024/01/20 15:06:54;;;;;;;45.90;16.65;;;;;;;;;;5102982;28;20028;-69
2024/01/20 15:09:41;;;;;;;48.55;17.30;;;;;;;;;;5094676;28;20099;-69
2024/01/20 15:12:26;;;;;;;46.03;16.10;;;;;;;;;;5102725;28;20055;-69
2024/01/20 15:15:12;;;;;;;45.83;15.13;;;;;;;;;;5097376;28;20024;-68
2024/01/20 15:17:58;;;;;;;43.05;15.10;;;;;;;;;;5094050;28;20515;-69
2024/01/20 15:20:43;;;;;;;45.63;18.08;;;;;;;;;;5111753;28;20511;-69
2024/01/20 15:23:29;;;;;;;40.40;15.88;;;;;;;;;;5097429;28;20028;-69
2024/01/20 15:26:15;;;;;;;41.80;16.42;;;;;;;;;;5093795;28;20062;-68
2024/01/20 15:29:01;;;;;;;38.22;15.07;;;;;;;;;;5099736;28;20023;-69
2024/01/20 15:31:46;;;;;;;45.33;14.43;;;;;;;;;;5113349;28;20031;-69
2024/01/20 15:34:32;;;;;;;42.40;15.38;;;;;;;;;;5096044;28;20396;-69
2024/01/20 15:37:17;;;;;;;40.22;15.63;;;;;;;;;;5094027;28;20505;-69
2024/01/20 15:40:04;;;;;;;48.25;17.45;;;;;;;;;;5094574;28;20020;-69
2024/01/20 15:42:52;;;;;;;59.92;16.65;;;;;;;;;;5094993;28;20034;-68
2024/01/20 15:45:37;;;;;;;33.65;14.88;;;;;;;;;;5098233;28;20024;-69
2024/01/20 15:48:23;;;;;;;48.15;16.33;;;;;;;;;;5094465;28;20055;-69
2024/01/20 15:51:09;;;;;;;47.60;14.93;;;;;;;;;;5095678;28;20051;-68
2024/01/20 15:53:54;;;;;;;38.50;14.35;;;;;;;;;;5094193;28;20036;-68
2024/01/20 15:56:41;;;;;;;32.72;14.55;;;;;;;;;;5097467;28;20404;-69
2024/01/20 15:59:27;;;;;;;28.70;11.85;;;;;;;;;;5098237;28;20059;-68
2024/01/20 16:02:12;;;;;;;35.10;15.43;;;;;;;;;;5112624;28;20381;-69
2024/01/20 16:04:58;;;;;;;38.85;14.43;;;;;;;;;;5079432;28;20028;-69
2024/01/20 16:07:44;;;;;;;54.10;15.93;;;;;;;;;;5077164;28;20103;-68
2024/01/20 16:10:29;;;;;;;54.28;16.23;;;;;;;;;;5094343;28;20020;-69
2024/01/20 16:13:15;;;;;;;46.63;15.77;;;;;;;;;;5092950;28;20020;-69
2024/01/20 16:16:02;;;;;;;35.35;12.13;;;;;;;;;;5086595;28;20024;-69
2024/01/20 16:18:48;;;;;;;29.55;14.60;;;;;;;;;;5093044;28;20020;-69